sensor_id;sensor_type;location;lat;lon;timestamp;P1;durP1;ratioP1;P2;durP2;ratioP2
77678;SDS011;66835;49.478;10.724;2023-06-05T00:01:04;0.20;;;0.20;;
77678;SDS011;66835;49.478;10.724;2023-06-05T00:03:29;0.22;;;0.22;;
77678;SDS011;66835;49.478;10.724;2023-06-05T00:05:55;0.45;;;0.45;;
77678;SDS011;66835;49.478;10.724;2023-06-05T00:08:20;0.20;;;0.20;;
77678;SDS011;66835;49.478;10.724;2023-06-05T00:10:47;0.22;;;0.22;;
77678;SDS011;66835;49.478;10.724;2023-06-05T00:13:12;0.40;;;0.40;;
77678;SDS011;66835;49.478;10.724;2023-06-05T00:15:38;0.37;;;0.37;;
77678;SDS011;66835;49.478;10.724;2023-06-05T00:18:03;0.40;;;0.40;;
77678;SDS011;66835;49.478;10.724;2023-06-05T00:20:29;0.10;;;0.10;;
77678;SDS011;66835;49.478;10.724;2023-06-05T00:22:54;0.30;;;0.30;;
77678;SDS011;66835;49.478;10.724;2023-06-05T00:25:20;0.35;;;0.35;;
77678;SDS011;66835;49.478;10.724;2023-06-05T00:27:46;0.30;;;0.30;;
77678;SDS011;66835;49.478;10.724;2023-06-05T00:30:12;0.30;;;0.30;;
77678;SDS011;66835;49.478;10.724;2023-06-05T00:32:38;0.25;;;0.25;;
77678;SDS011;66835;49.478;10.724;2023-06-05T00:35:04;0.30;;;0.30;;
77678;SDS011;66835;49.478;10.724;2023-06-05T00:37:31;0.30;;;0.30;;
77678;SDS011;66835;49.478;10.724;2023-06-05T00:39:56;0.22;;;0.22;;
77678;SDS011;66835;49.478;10.724;2023-06-05T00:42:22;0.28;;;0.28;;
77678;SDS011;66835;49.478;10.724;2023-06-05T00:44:48;0.30;;;0.30;;
77678;SDS011;66835;49.478;10.724;2023-06-05T00:47:14;0.30;;;0.30;;
77678;SDS011;66835;49.478;10.724;2023-06-05T00:49:40;0.30;;;0.30;;
77678;SDS011;66835;49.478;10.724;2023-06-05T00:52:05;0.30;;;0.30;;
77678;SDS011;66835;49.478;10.724;2023-06-05T00:54:31;0.40;;;0.40;;
77678;SDS011;66835;49.478;10.724;2023-06-05T00:56:57;0.40;;;0.40;;
77678;SDS011;66835;49.478;10.724;2023-06-05T00:59:22;0.40;;;0.40;;
77678;SDS011;66835;49.478;10.724;2023-06-05T01:01:49;0.30;;;0.30;;
77678;SDS011;66835;49.478;10.724;2023-06-05T01:04:15;0.40;;;0.40;;
77678;SDS011;66835;49.478;10.724;2023-06-05T01:06:41;0.10;;;0.10;;
77678;SDS011;66835;49.478;10.724;2023-06-05T01:09:06;0.10;;;0.10;;
77678;SDS011;66835;49.478;10.724;2023-06-05T01:11:35;0.50;;;0.50;;
77678;SDS011;66835;49.478;10.724;2023-06-05T01:14:06;0.38;;;0.38;;
77678;SDS011;66835;49.478;10.724;2023-06-05T01:16:35;0.30;;;0.30;;
77678;SDS011;66835;49.478;10.724;2023-06-05T01:19:02;0.43;;;0.43;;
77678;SDS011;66835;49.478;10.724;2023-06-05T01:21:28;0.40;;;0.40;;
77678;SDS011;66835;49.478;10.724;2023-06-05T01:23:55;0.40;;;0.40;;
77678;SDS011;66835;49.478;10.724;2023-06-05T01:26:22;0.40;;;0.40;;
77678;SDS011;66835;49.478;10.724;2023-06-05T01:31:16;0.30;;;0.30;;
77678;SDS011;66835;49.478;10.724;2023-06-05T01:33:46;0.35;;;0.35;;
77678;SDS011;66835;49.478;10.724;2023-06-05T01:36:15;0.40;;;0.40;;
77678;SDS011;66835;49.478;10.724;2023-06-05T01:38:41;0.10;;;0.10;;
77678;SDS011;66835;49.478;10.724;2023-06-05T01:41:09;0.30;;;0.30;;
77678;SDS011;66835;49.478;10.724;2023-06-05T01:43:38;0.30;;;0.30;;
77678;SDS011;66835;49.478;10.724;2023-06-05T01:46:03;0.17;;;0.17;;
77678;SDS011;66835;49.478;10.724;2023-06-05T01:48:30;0.30;;;0.30;;
77678;SDS011;66835;49.478;10.724;2023-06-05T01:50:57;0.30;;;0.30;;
77678;SDS011;66835;49.478;10.724;2023-06-05T01:53:23;0.45;;;0.45;;
77678;SDS011;66835;49.478;10.724;2023-06-05T01:55:49;0.30;;;0.30;;
77678;SDS011;66835;49.478;10.724;2023-06-05T01:58:18;0.30;;;0.30;;
77678;SDS011;66835;49.478;10.724;2023-06-05T02:00:45;0.40;;;0.40;;
77678;SDS011;66835;49.478;10.724;2023-06-05T02:03:11;0.20;;;0.20;;
77678;SDS011;66835;49.478;10.724;2023-06-05T02:05:36;0.40;;;0.40;;
77678;SDS011;66835;49.478;10.724;2023-06-05T02:08:02;0.40;;;0.40;;
77678;SDS011;66835;49.478;10.724;2023-06-05T02:10:30;0.25;;;0.25;;
77678;SDS011;66835;49.478;10.724;2023-06-05T02:12:56;0.32;;;0.32;;
77678;SDS011;66835;49.478;10.724;2023-06-05T02:15:23;0.40;;;0.40;;
77678;SDS011;66835;49.478;10.724;2023-06-05T02:17:49;0.40;;;0.40;;
77678;SDS011;66835;49.478;10.724;2023-06-05T02:20:18;0.30;;;0.30;;
77678;SDS011;66835;49.478;10.724;2023-06-05T02:22:44;0.30;;;0.30;;
77678;SDS011;66835;49.478;10.724;2023-06-05T02:25:10;0.30;;;0.30;;
77678;SDS011;66835;49.478;10.724;2023-06-05T02:27:36;0.30;;;0.30;;
77678;SDS011;66835;49.478;10.724;2023-06-05T02:30:01;0.30;;;0.30;;
77678;SDS011;66835;49.478;10.724;2023-06-05T02:32:28;0.30;;;0.30;;
77678;SDS011;66835;49.478;10.724;2023-06-05T02:34:54;0.40;;;0.40;;
77678;SDS011;66835;49.478;10.724;2023-06-05T02:37:21;0.32;;;0.32;;
77678;SDS011;66835;49.478;10.724;2023-06-05T02:39:47;0.30;;;0.30;;
77678;SDS011;66835;49.478;10.724;2023-06-05T02:42:13;0.35;;;0.35;;
77678;SDS011;66835;49.478;10.724;2023-06-05T02:44:38;0.30;;;0.30;;
77678;SDS011;66835;49.478;10.724;2023-06-05T02:47:04;0.47;;;0.47;;
77678;SDS011;66835;49.478;10.724;2023-06-05T02:49:31;0.55;;;0.55;;
77678;SDS011;66835;49.478;10.724;2023-06-05T02:51:57;0.40;;;0.40;;
77678;SDS011;66835;49.478;10.724;2023-06-05T02:54:23;0.22;;;0.22;;
77678;SDS011;66835;49.478;10.724;2023-06-05T02:56:48;0.40;;;0.40;;
77678;SDS011;66835;49.478;10.724;2023-06-05T02:59:14;0.40;;;0.40;;
77678;SDS011;66835;49.478;10.724;2023-06-05T03:01:40;0.43;;;0.43;;
77678;SDS011;66835;49.478;10.724;2023-06-05T03:04:12;0.40;;;0.40;;
77678;SDS011;66835;49.478;10.724;2023-06-05T03:06:39;0.45;;;0.45;;
77678;SDS011;66835;49.478;10.724;2023-06-05T03:09:08;0.40;;;0.40;;
77678;SDS011;66835;49.478;10.724;2023-06-05T03:11:33;0.40;;;0.40;;
77678;SDS011;66835;49.478;10.724;2023-06-05T03:13:59;0.40;;;0.40;;
77678;SDS011;66835;49.478;10.724;2023-06-05T03:16:25;0.40;;;0.40;;
77678;SDS011;66835;49.478;10.724;2023-06-05T03:18:57;0.30;;;0.30;;
77678;SDS011;66835;49.478;10.724;2023-06-05T03:21:23;0.40;;;0.40;;
77678;SDS011;66835;49.478;10.724;2023-06-05T03:23:49;0.50;;;0.50;;
77678;SDS011;66835;49.478;10.724;2023-06-05T03:26:15;0.35;;;0.35;;
77678;SDS011;66835;49.478;10.724;2023-06-05T03:28:40;0.37;;;0.37;;
77678;SDS011;66835;49.478;10.724;2023-06-05T03:31:07;0.40;;;0.40;;
77678;SDS011;66835;49.478;10.724;2023-06-05T03:33:34;0.63;;;0.63;;
77678;SDS011;66835;49.478;10.724;2023-06-05T03:35:59;0.30;;;0.30;;
77678;SDS011;66835;49.478;10.724;2023-06-05T03:38:25;0.30;;;0.30;;
77678;SDS011;66835;49.478;10.724;2023-06-05T03:40:51;0.40;;;0.40;;
77678;SDS011;66835;49.478;10.724;2023-06-05T03:43:17;0.40;;;0.40;;
77678;SDS011;66835;49.478;10.724;2023-06-05T03:45:42;0.40;;;0.40;;
77678;SDS011;66835;49.478;10.724;2023-06-05T03:48:07;0.40;;;0.40;;
77678;SDS011;66835;49.478;10.724;2023-06-05T03:50:34;0.45;;;0.45;;
77678;SDS011;66835;49.478;10.724;2023-06-05T03:53:03;0.40;;;0.40;;
77678;SDS011;66835;49.478;10.724;2023-06-05T03:55:30;0.47;;;0.47;;
77678;SDS011;66835;49.478;10.724;2023-06-05T03:58:07;0.32;;;0.32;;
77678;SDS011;66835;49.478;10.724;2023-06-05T04:00:33;0.40;;;0.40;;
77678;SDS011;66835;49.478;10.724;2023-06-05T04:02:58;0.43;;;0.43;;
77678;SDS011;66835;49.478;10.724;2023-06-05T04:05:24;0.65;;;0.65;;
77678;SDS011;66835;49.478;10.724;2023-06-05T04:07:49;0.40;;;0.40;;
77678;SDS011;66835;49.478;10.724;2023-06-05T04:10:15;0.38;;;0.38;;
77678;SDS011;66835;49.478;10.724;2023-06-05T04:12:40;0.50;;;0.50;;
77678;SDS011;66835;49.478;10.724;2023-06-05T04:15:08;0.20;;;0.20;;
77678;SDS011;66835;49.478;10.724;2023-06-05T04:17:34;0.40;;;0.40;;
77678;SDS011;66835;49.478;10.724;2023-06-05T04:19:59;0.40;;;0.40;;
77678;SDS011;66835;49.478;10.724;2023-06-05T04:22:25;0.40;;;0.40;;
77678;SDS011;66835;49.478;10.724;2023-06-05T04:24:50;0.50;;;0.50;;
77678;SDS011;66835;49.478;10.724;2023-06-05T04:27:15;0.30;;;0.30;;
77678;SDS011;66835;49.478;10.724;2023-06-05T04:29:42;0.40;;;0.40;;
77678;SDS011;66835;49.478;10.724;2023-06-05T04:32:10;0.38;;;0.38;;
77678;SDS011;66835;49.478;10.724;2023-06-05T04:34:36;0.50;;;0.50;;
77678;SDS011;66835;49.478;10.724;2023-06-05T04:37:01;0.50;;;0.50;;
77678;SDS011;66835;49.478;10.724;2023-06-05T04:39:28;0.40;;;0.40;;
77678;SDS011;66835;49.478;10.724;2023-06-05T04:41:54;0.50;;;0.50;;
77678;SDS011;66835;49.478;10.724;2023-06-05T04:44:19;0.35;;;0.35;;
77678;SDS011;66835;49.478;10.724;2023-06-05T04:46:45;0.47;;;0.47;;
77678;SDS011;66835;49.478;10.724;2023-06-05T04:49:12;0.47;;;0.47;;
77678;SDS011;66835;49.478;10.724;2023-06-05T04:51:38;0.77;;;0.77;;
77678;SDS011;66835;49.478;10.724;2023-06-05T04:54:04;0.40;;;0.40;;
77678;SDS011;66835;49.478;10.724;2023-06-05T04:56:30;0.30;;;0.30;;
77678;SDS011;66835;49.478;10.724;2023-06-05T04:58:57;0.50;;;0.50;;
77678;SDS011;66835;49.478;10.724;2023-06-05T05:01:24;0.40;;;0.40;;
77678;SDS011;66835;49.478;10.724;2023-06-05T05:03:49;0.30;;;0.30;;
77678;SDS011;66835;49.478;10.724;2023-06-05T05:06:17;0.30;;;0.30;;
77678;SDS011;66835;49.478;10.724;2023-06-05T05:08:43;0.30;;;0.30;;
77678;SDS011;66835;49.478;10.724;2023-06-05T05:11:10;0.40;;;0.40;;
77678;SDS011;66835;49.478;10.724;2023-06-05T05:13:36;0.15;;;0.15;;
77678;SDS011;66835;49.478;10.724;2023-06-05T05:16:02;0.30;;;0.30;;
77678;SDS011;66835;49.478;10.724;2023-06-05T05:18:27;0.30;;;0.30;;
77678;SDS011;66835;49.478;10.724;2023-06-05T05:20:53;0.30;;;0.30;;
77678;SDS011;66835;49.478;10.724;2023-06-05T05:23:20;0.45;;;0.45;;
77678;SDS011;66835;49.478;10.724;2023-06-05T05:25:45;0.50;;;0.50;;
77678;SDS011;66835;49.478;10.724;2023-06-05T05:28:11;0.40;;;0.40;;
77678;SDS011;66835;49.478;10.724;2023-06-05T05:30:37;0.40;;;0.40;;
77678;SDS011;66835;49.478;10.724;2023-06-05T05:33:02;0.40;;;0.40;;
77678;SDS011;66835;49.478;10.724;2023-06-05T05:35:28;0.35;;;0.35;;
77678;SDS011;66835;49.478;10.724;2023-06-05T05:37:53;0.30;;;0.30;;
77678;SDS011;66835;49.478;10.724;2023-06-05T05:40:20;0.20;;;0.20;;
77678;SDS011;66835;49.478;10.724;2023-06-05T05:42:45;0.40;;;0.40;;
77678;SDS011;66835;49.478;10.724;2023-06-05T05:45:10;0.30;;;0.30;;
77678;SDS011;66835;49.478;10.724;2023-06-05T05:47:36;0.28;;;0.28;;
77678;SDS011;66835;49.478;10.724;2023-06-05T05:50:01;0.37;;;0.37;;
77678;SDS011;66835;49.478;10.724;2023-06-05T05:52:27;0.20;;;0.20;;
77678;SDS011;66835;49.478;10.724;2023-06-05T05:54:52;0.20;;;0.20;;
77678;SDS011;66835;49.478;10.724;2023-06-05T05:57:19;0.20;;;0.20;;
77678;SDS011;66835;49.478;10.724;2023-06-05T05:59:44;0.30;;;0.30;;
77678;SDS011;66835;49.478;10.724;2023-06-05T06:02:10;0.20;;;0.20;;
77678;SDS011;66835;49.478;10.724;2023-06-05T06:04:36;0.20;;;0.20;;
77678;SDS011;66835;49.478;10.724;2023-06-05T06:07:01;0.25;;;0.25;;
77678;SDS011;66835;49.478;10.724;2023-06-05T06:09:27;0.32;;;0.32;;
77678;SDS011;66835;49.478;10.724;2023-06-05T06:11:53;0.28;;;0.28;;
77678;SDS011;66835;49.478;10.724;2023-06-05T06:14:21;0.20;;;0.20;;
77678;SDS011;66835;49.478;10.724;2023-06-05T06:16:47;0.22;;;0.22;;
77678;SDS011;66835;49.478;10.724;2023-06-05T06:19:12;0.30;;;0.30;;
77678;SDS011;66835;49.478;10.724;2023-06-05T06:21:39;0.25;;;0.25;;
77678;SDS011;66835;49.478;10.724;2023-06-05T06:24:05;0.30;;;0.30;;
77678;SDS011;66835;49.478;10.724;2023-06-05T06:26:30;0.17;;;0.17;;
77678;SDS011;66835;49.478;10.724;2023-06-05T06:28:56;0.35;;;0.35;;
77678;SDS011;66835;49.478;10.724;2023-06-05T06:31:24;0.10;;;0.10;;
77678;SDS011;66835;49.478;10.724;2023-06-05T06:33:49;0.55;;;0.55;;
77678;SDS011;66835;49.478;10.724;2023-06-05T06:36:14;0.10;;;0.10;;
77678;SDS011;66835;49.478;10.724;2023-06-05T06:38:41;0.30;;;0.30;;
77678;SDS011;66835;49.478;10.724;2023-06-05T06:41:07;0.30;;;0.30;;
77678;SDS011;66835;49.478;10.724;2023-06-05T06:43:33;0.20;;;0.20;;
77678;SDS011;66835;49.478;10.724;2023-06-05T06:45:58;0.30;;;0.30;;
77678;SDS011;66835;49.478;10.724;2023-06-05T06:48:26;0.30;;;0.30;;
77678;SDS011;66835;49.478;10.724;2023-06-05T06:50:51;0.30;;;0.30;;
77678;SDS011;66835;49.478;10.724;2023-06-05T06:53:17;0.57;;;0.57;;
77678;SDS011;66835;49.478;10.724;2023-06-05T06:55:43;0.30;;;0.30;;
77678;SDS011;66835;49.478;10.724;2023-06-05T06:58:08;0.20;;;0.20;;
77678;SDS011;66835;49.478;10.724;2023-06-05T07:00:34;0.10;;;0.10;;
77678;SDS011;66835;49.478;10.724;2023-06-05T07:02:59;0.13;;;0.13;;
77678;SDS011;66835;49.478;10.724;2023-06-05T07:05:26;0.20;;;0.20;;
77678;SDS011;66835;49.478;10.724;2023-06-05T07:07:52;0.50;;;0.30;;
77678;SDS011;66835;49.478;10.724;2023-06-05T07:10:17;0.30;;;0.30;;
77678;SDS011;66835;49.478;10.724;2023-06-05T07:12:42;0.22;;;0.20;;
77678;SDS011;66835;49.478;10.724;2023-06-05T07:15:08;0.17;;;0.13;;
77678;SDS011;66835;49.478;10.724;2023-06-05T07:17:34;0.10;;;0.10;;
77678;SDS011;66835;49.478;10.724;2023-06-05T07:19:59;0.25;;;0.25;;
77678;SDS011;66835;49.478;10.724;2023-06-05T07:22:26;0.22;;;0.22;;
77678;SDS011;66835;49.478;10.724;2023-06-05T07:24:53;0.30;;;0.30;;
77678;SDS011;66835;49.478;10.724;2023-06-05T07:27:18;0.17;;;0.17;;
77678;SDS011;66835;49.478;10.724;2023-06-05T07:29:45;0.20;;;0.20;;
77678;SDS011;66835;49.478;10.724;2023-06-05T07:32:12;0.10;;;0.10;;
77678;SDS011;66835;49.478;10.724;2023-06-05T07:34:39;0.20;;;0.20;;
77678;SDS011;66835;49.478;10.724;2023-06-05T07:37:08;0.20;;;0.20;;
77678;SDS011;66835;49.478;10.724;2023-06-05T07:39:35;0.10;;;0.10;;
77678;SDS011;66835;49.478;10.724;2023-06-05T07:42:01;0.17;;;0.17;;
77678;SDS011;66835;49.478;10.724;2023-06-05T07:44:27;0.20;;;0.20;;
77678;SDS011;66835;49.478;10.724;2023-06-05T07:46:55;0.10;;;0.10;;
77678;SDS011;66835;49.478;10.724;2023-06-05T07:49:23;0.15;;;0.10;;
77678;SDS011;66835;49.478;10.724;2023-06-05T07:51:52;0.20;;;0.20;;
77678;SDS011;66835;49.478;10.724;2023-06-05T07:54:18;0.28;;;0.28;;
77678;SDS011;66835;49.478;10.724;2023-06-05T07:56:48;0.10;;;0.10;;
77678;SDS011;66835;49.478;10.724;2023-06-05T07:59:17;0.20;;;0.20;;
77678;SDS011;66835;49.478;10.724;2023-06-05T08:01:47;0.10;;;0.10;;
77678;SDS011;66835;49.478;10.724;2023-06-05T08:04:14;0.10;;;0.10;;
77678;SDS011;66835;49.478;10.724;2023-06-05T08:06:40;0.20;;;0.20;;
77678;SDS011;66835;49.478;10.724;2023-06-05T08:09:07;0.20;;;0.20;;
77678;SDS011;66835;49.478;10.724;2023-06-05T08:11:34;0.10;;;0.10;;
77678;SDS011;66835;49.478;10.724;2023-06-05T08:14:02;0.10;;;0.10;;
77678;SDS011;66835;49.478;10.724;2023-06-05T08:16:28;0.20;;;0.20;;
77678;SDS011;66835;49.478;10.724;2023-06-05T08:18:54;0.10;;;0.10;;
77678;SDS011;66835;49.478;10.724;2023-06-05T08:21:22;0.10;;;0.10;;
77678;SDS011;66835;49.478;10.724;2023-06-05T08:23:47;0.10;;;0.10;;
77678;SDS011;66835;49.478;10.724;2023-06-05T08:26:13;0.13;;;0.13;;
77678;SDS011;66835;49.478;10.724;2023-06-05T08:28:39;0.10;;;0.10;;
77678;SDS011;66835;49.478;10.724;2023-06-05T08:31:06;0.10;;;0.10;;
77678;SDS011;66835;49.478;10.724;2023-06-05T08:33:32;0.20;;;0.20;;
77678;SDS011;66835;49.478;10.724;2023-06-05T08:35:58;0.10;;;0.10;;
77678;SDS011;66835;49.478;10.724;2023-06-05T08:38:23;0.00;;;0.00;;
77678;SDS011;66835;49.478;10.724;2023-06-05T08:40:48;0.10;;;0.10;;
77678;SDS011;66835;49.478;10.724;2023-06-05T08:43:16;0.28;;;0.28;;
77678;SDS011;66835;49.478;10.724;2023-06-05T08:45:41;0.10;;;0.10;;
77678;SDS011;66835;49.478;10.724;2023-06-05T08:48:08;0.20;;;0.20;;
77678;SDS011;66835;49.478;10.724;2023-06-05T08:50:37;0.10;;;0.10;;
77678;SDS011;66835;49.478;10.724;2023-06-05T08:53:04;0.10;;;0.10;;
77678;SDS011;66835;49.478;10.724;2023-06-05T08:55:29;0.10;;;0.10;;
77678;SDS011;66835;49.478;10.724;2023-06-05T08:57:55;0.20;;;0.20;;
77678;SDS011;66835;49.478;10.724;2023-06-05T09:00:21;0.10;;;0.10;;
77678;SDS011;66835;49.478;10.724;2023-06-05T09:02:47;0.10;;;0.10;;
77678;SDS011;66835;49.478;10.724;2023-06-05T09:05:14;0.10;;;0.10;;
77678;SDS011;66835;49.478;10.724;2023-06-05T09:07:39;0.20;;;0.13;;
77678;SDS011;66835;49.478;10.724;2023-06-05T09:10:06;0.17;;;0.17;;
77678;SDS011;66835;49.478;10.724;2023-06-05T09:12:32;0.10;;;0.10;;
77678;SDS011;66835;49.478;10.724;2023-06-05T09:15:15;0.15;;;0.13;;
77678;SDS011;66835;49.478;10.724;2023-06-05T09:17:46;0.10;;;0.10;;
77678;SDS011;66835;49.478;10.724;2023-06-05T09:20:23;0.08;;;0.08;;
77678;SDS011;66835;49.478;10.724;2023-06-05T09:22:49;0.10;;;0.10;;
77678;SDS011;66835;49.478;10.724;2023-06-05T09:25:14;0.10;;;0.10;;
77678;SDS011;66835;49.478;10.724;2023-06-05T09:27:40;0.10;;;0.10;;
77678;SDS011;66835;49.478;10.724;2023-06-05T09:30:06;0.10;;;0.10;;
77678;SDS011;66835;49.478;10.724;2023-06-05T09:32:32;0.10;;;0.10;;
77678;SDS011;66835;49.478;10.724;2023-06-05T09:34:58;0.13;;;0.13;;
77678;SDS011;66835;49.478;10.724;2023-06-05T09:37:33;0.10;;;0.10;;
77678;SDS011;66835;49.478;10.724;2023-06-05T09:40:03;0.00;;;0.00;;
77678;SDS011;66835;49.478;10.724;2023-06-05T09:42:34;0.10;;;0.10;;
77678;SDS011;66835;49.478;10.724;2023-06-05T09:45:00;0.00;;;0.00;;
77678;SDS011;66835;49.478;10.724;2023-06-05T09:47:27;0.00;;;0.00;;
77678;SDS011;66835;49.478;10.724;2023-06-05T09:49:52;0.10;;;0.10;;
77678;SDS011;66835;49.478;10.724;2023-06-05T09:52:19;0.20;;;0.20;;
77678;SDS011;66835;49.478;10.724;2023-06-05T09:54:46;0.10;;;0.10;;
77678;SDS011;66835;49.478;10.724;2023-06-05T09:57:12;0.00;;;0.00;;
77678;SDS011;66835;49.478;10.724;2023-06-05T09:59:39;0.10;;;0.10;;
77678;SDS011;66835;49.478;10.724;2023-06-05T10:02:08;0.03;;;0.03;;
77678;SDS011;66835;49.478;10.724;2023-06-05T10:04:36;0.10;;;0.10;;
77678;SDS011;66835;49.478;10.724;2023-06-05T10:07:04;0.10;;;0.05;;
77678;SDS011;66835;49.478;10.724;2023-06-05T10:09:30;0.10;;;0.10;;
77678;SDS011;66835;49.478;10.724;2023-06-05T10:14:25;0.10;;;0.10;;
77678;SDS011;66835;49.478;10.724;2023-06-05T10:16:51;0.00;;;0.00;;
77678;SDS011;66835;49.478;10.724;2023-06-05T10:19:17;0.10;;;0.10;;
77678;SDS011;66835;49.478;10.724;2023-06-05T10:21:43;0.00;;;0.00;;
77678;SDS011;66835;49.478;10.724;2023-06-05T10:24:10;0.10;;;0.10;;
77678;SDS011;66835;49.478;10.724;2023-06-05T10:29:33;0.10;;;0.10;;
77678;SDS011;66835;49.478;10.724;2023-06-05T10:32:09;0.17;;;0.17;;
77678;SDS011;66835;49.478;10.724;2023-06-05T10:37:13;0.13;;;0.13;;
77678;SDS011;66835;49.478;10.724;2023-06-05T10:39:53;0.10;;;0.10;;
77678;SDS011;66835;49.478;10.724;2023-06-05T10:42:26;0.10;;;0.10;;
77678;SDS011;66835;49.478;10.724;2023-06-05T10:44:51;0.20;;;0.10;;
77678;SDS011;66835;49.478;10.724;2023-06-05T10:50:21;0.10;;;0.10;;
77678;SDS011;66835;49.478;10.724;2023-06-05T10:52:50;0.10;;;0.10;;
77678;SDS011;66835;49.478;10.724;2023-06-05T10:55:16;0.20;;;0.20;;
77678;SDS011;66835;49.478;10.724;2023-06-05T11:00:35;0.00;;;0.00;;
77678;SDS011;66835;49.478;10.724;2023-06-05T11:03:00;0.00;;;0.00;;
77678;SDS011;66835;49.478;10.724;2023-06-05T11:05:26;0.15;;;0.10;;
77678;SDS011;66835;49.478;10.724;2023-06-05T11:10:36;0.20;;;0.20;;
77678;SDS011;66835;49.478;10.724;2023-06-05T11:13:01;0.15;;;0.05;;
77678;SDS011;66835;49.478;10.724;2023-06-05T11:15:42;0.10;;;0.10;;
77678;SDS011;66835;49.478;10.724;2023-06-05T11:20:59;0.13;;;0.13;;
77678;SDS011;66835;49.478;10.724;2023-06-05T11:23:25;0.10;;;0.10;;
77678;SDS011;66835;49.478;10.724;2023-06-05T11:25:53;0.20;;;0.20;;
77678;SDS011;66835;49.478;10.724;2023-06-05T11:28:37;0.05;;;0.05;;
77678;SDS011;66835;49.478;10.724;2023-06-05T11:31:05;0.08;;;0.08;;
77678;SDS011;66835;49.478;10.724;2023-06-05T11:33:31;0.17;;;0.08;;
77678;SDS011;66835;49.478;10.724;2023-06-05T11:35:59;0.10;;;0.10;;
77678;SDS011;66835;49.478;10.724;2023-06-05T11:38:25;0.10;;;0.10;;
77678;SDS011;66835;49.478;10.724;2023-06-05T11:40:51;0.10;;;0.10;;
77678;SDS011;66835;49.478;10.724;2023-06-05T11:43:16;0.10;;;0.10;;
77678;SDS011;66835;49.478;10.724;2023-06-05T11:45:43;0.00;;;0.00;;
77678;SDS011;66835;49.478;10.724;2023-06-05T11:48:15;0.20;;;0.10;;
77678;SDS011;66835;49.478;10.724;2023-06-05T11:50:50;0.10;;;0.10;;
77678;SDS011;66835;49.478;10.724;2023-06-05T11:53:17;0.00;;;0.00;;
77678;SDS011;66835;49.478;10.724;2023-06-05T11:55:43;0.00;;;0.00;;
77678;SDS011;66835;49.478;10.724;2023-06-05T11:58:29;0.13;;;0.13;;
77678;SDS011;66835;49.478;10.724;2023-06-05T12:01:03;0.10;;;0.10;;
77678;SDS011;66835;49.478;10.724;2023-06-05T12:03:31;0.10;;;0.10;;
77678;SDS011;66835;49.478;10.724;2023-06-05T12:05:57;0.00;;;0.00;;
77678;SDS011;66835;49.478;10.724;2023-06-05T12:08:23;0.13;;;0.10;;
77678;SDS011;66835;49.478;10.724;2023-06-05T12:10:50;0.10;;;0.10;;
77678;SDS011;66835;49.478;10.724;2023-06-05T12:13:15;0.10;;;0.10;;
77678;SDS011;66835;49.478;10.724;2023-06-05T12:15:41;0.10;;;0.10;;
77678;SDS011;66835;49.478;10.724;2023-06-05T12:18:06;0.07;;;0.07;;
77678;SDS011;66835;49.478;10.724;2023-06-05T12:20:38;0.00;;;0.00;;
77678;SDS011;66835;49.478;10.724;2023-06-05T12:23:07;0.10;;;0.10;;
77678;SDS011;66835;49.478;10.724;2023-06-05T12:25:32;0.10;;;0.10;;
77678;SDS011;66835;49.478;10.724;2023-06-05T12:27:58;0.10;;;0.10;;
77678;SDS011;66835;49.478;10.724;2023-06-05T12:30:24;0.10;;;0.10;;
77678;SDS011;66835;49.478;10.724;2023-06-05T12:32:49;0.00;;;0.00;;
77678;SDS011;66835;49.478;10.724;2023-06-05T12:35:19;0.10;;;0.10;;
77678;SDS011;66835;49.478;10.724;2023-06-05T12:37:47;0.10;;;0.10;;
77678;SDS011;66835;49.478;10.724;2023-06-05T12:40:13;0.05;;;0.05;;
77678;SDS011;66835;49.478;10.724;2023-06-05T12:42:39;0.00;;;0.00;;
77678;SDS011;66835;49.478;10.724;2023-06-05T12:45:06;0.10;;;0.10;;
77678;SDS011;66835;49.478;10.724;2023-06-05T12:47:32;0.00;;;0.00;;
77678;SDS011;66835;49.478;10.724;2023-06-05T12:49:58;0.05;;;0.05;;
77678;SDS011;66835;49.478;10.724;2023-06-05T12:52:23;0.20;;;0.20;;
77678;SDS011;66835;49.478;10.724;2023-06-05T12:54:52;0.15;;;0.13;;
77678;SDS011;66835;49.478;10.724;2023-06-05T12:57:17;0.03;;;0.03;;
77678;SDS011;66835;49.478;10.724;2023-06-05T12:59:45;0.10;;;0.10;;
77678;SDS011;66835;49.478;10.724;2023-06-05T13:02:11;0.00;;;0.00;;
77678;SDS011;66835;49.478;10.724;2023-06-05T13:04:36;0.10;;;0.10;;
77678;SDS011;66835;49.478;10.724;2023-06-05T13:07:02;0.10;;;0.10;;
77678;SDS011;66835;49.478;10.724;2023-06-05T13:09:28;0.10;;;0.10;;
77678;SDS011;66835;49.478;10.724;2023-06-05T13:11:54;0.00;;;0.00;;
77678;SDS011;66835;49.478;10.724;2023-06-05T13:14:20;0.13;;;0.13;;
77678;SDS011;66835;49.478;10.724;2023-06-05T13:16:46;0.32;;;0.10;;
77678;SDS011;66835;49.478;10.724;2023-06-05T13:19:11;0.00;;;0.00;;
77678;SDS011;66835;49.478;10.724;2023-06-05T13:21:36;0.00;;;0.00;;
77678;SDS011;66835;49.478;10.724;2023-06-05T13:24:02;0.10;;;0.10;;
77678;SDS011;66835;49.478;10.724;2023-06-05T13:26:27;0.10;;;0.10;;
77678;SDS011;66835;49.478;10.724;2023-06-05T13:28:54;0.10;;;0.10;;
77678;SDS011;66835;49.478;10.724;2023-06-05T13:31:19;0.05;;;0.05;;
77678;SDS011;66835;49.478;10.724;2023-06-05T13:33:45;0.00;;;0.00;;
77678;SDS011;66835;49.478;10.724;2023-06-05T13:36:10;0.00;;;0.00;;
77678;SDS011;66835;49.478;10.724;2023-06-05T13:38:36;0.10;;;0.10;;
77678;SDS011;66835;49.478;10.724;2023-06-05T13:41:04;0.10;;;0.10;;
77678;SDS011;66835;49.478;10.724;2023-06-05T13:43:29;0.13;;;0.13;;
77678;SDS011;66835;49.478;10.724;2023-06-05T13:45:56;0.10;;;0.10;;
77678;SDS011;66835;49.478;10.724;2023-06-05T13:48:21;0.03;;;0.03;;
77678;SDS011;66835;49.478;10.724;2023-06-05T13:50:47;0.25;;;0.10;;
77678;SDS011;66835;49.478;10.724;2023-06-05T13:53:12;0.10;;;0.10;;
77678;SDS011;66835;49.478;10.724;2023-06-05T13:55:38;0.00;;;0.00;;
77678;SDS011;66835;49.478;10.724;2023-06-05T13:58:04;0.00;;;0.00;;
77678;SDS011;66835;49.478;10.724;2023-06-05T14:00:30;0.10;;;0.10;;
77678;SDS011;66835;49.478;10.724;2023-06-05T14:02:57;0.10;;;0.10;;
77678;SDS011;66835;49.478;10.724;2023-06-05T14:05:23;0.10;;;0.10;;
77678;SDS011;66835;49.478;10.724;2023-06-05T14:07:49;0.00;;;0.00;;
77678;SDS011;66835;49.478;10.724;2023-06-05T14:10:14;0.03;;;0.03;;
77678;SDS011;66835;49.478;10.724;2023-06-05T14:12:40;0.03;;;0.03;;
77678;SDS011;66835;49.478;10.724;2023-06-05T14:15:06;0.15;;;0.15;;
77678;SDS011;66835;49.478;10.724;2023-06-05T14:17:31;0.00;;;0.00;;
77678;SDS011;66835;49.478;10.724;2023-06-05T14:19:58;0.00;;;0.00;;
77678;SDS011;66835;49.478;10.724;2023-06-05T14:22:24;0.03;;;0.03;;
77678;SDS011;66835;49.478;10.724;2023-06-05T14:24:49;0.30;;;0.20;;
77678;SDS011;66835;49.478;10.724;2023-06-05T14:27:15;0.00;;;0.00;;
77678;SDS011;66835;49.478;10.724;2023-06-05T14:29:41;0.20;;;0.10;;
77678;SDS011;66835;49.478;10.724;2023-06-05T14:32:06;0.10;;;0.10;;
77678;SDS011;66835;49.478;10.724;2023-06-05T14:34:32;0.00;;;0.00;;
77678;SDS011;66835;49.478;10.724;2023-06-05T14:36:59;0.08;;;0.08;;
77678;SDS011;66835;49.478;10.724;2023-06-05T14:39:24;0.00;;;0.00;;
77678;SDS011;66835;49.478;10.724;2023-06-05T14:41:49;0.00;;;0.00;;
77678;SDS011;66835;49.478;10.724;2023-06-05T14:44:15;0.00;;;0.00;;
77678;SDS011;66835;49.478;10.724;2023-06-05T14:46:40;0.00;;;0.00;;
77678;SDS011;66835;49.478;10.724;2023-06-05T14:49:06;0.05;;;0.00;;
77678;SDS011;66835;49.478;10.724;2023-06-05T14:51:31;0.10;;;0.10;;